Impacts TAF Board INFO
FOR SITUATIONAL AWARENESS. NOT TO BE USED FOR FLIGHT PLANNING PURPOSES.
IDs:

KMEM - Memphis Intl, TN, US

Issued at 1730 UTC 21 Jun 2018
Updated at 1952 UTC 21 Jun 2018
Potential Impact None Slight Moderate High
Time<<22/20Z 22/21Z 22/22Z 22/23Z 23/00Z 23/01Z 23/02Z 23/03Z 23/04Z 23/05Z 23/06Z 23/07Z 23/08Z
Type PRVL PRVL PRVL PRVL
VIS >6 >6 >6 >6
CIG 50 50 50 50
Cover BKN BKN BKN BKN
FltCat VFR VFR VFR VFR
WX -- -- -- --
WDir 260 260 260 260
WSpd 10 10 10 10
WGst -- -- -- --

Raw TAF
KMEM 211730Z 2118/2224 26010G18KT P6SM SCT035
  FM212000 23010G18KT P6SM VCTS SCT035CB BKN060
  TEMPO 2121/2123 3SM TSRA BKN025CB
  FM220100 24006KT P6SM SCT040 BKN150
  FM221600 26010KT P6SM BKN050


METAR Board
Radar Display
Forecast Discussion

FOR SITUATIONAL AWARENESS. NOT TO BE USED FOR FLIGHT PLANNING PURPOSES.